Time;durP1;ratioP1;P1;durP2;ratioP2;P2;SDS_P1;SDS_P2;PMS_P1;PMS_P2;Temp;Humidity;BMP_temperature;BMP_pressure;BME280_temperature;BME280_humidity;BME280_pressure;Samples;Min_cycle;Max_cycle;Signal;HPM_P1;HPM_P2
2022/03/26 00:00:23;;;;;;;15.52;10.15;;;;;;;8.81;42.27;99390.91;5010469;28;20436;-62
2022/03/26 00:02:49;;;;;;;17.52;9.98;;;;;;;8.76;42.91;99373.13;5018296;28;20076;-63
2022/03/26 00:05:15;;;;;;;18.67;10.52;;;;;;;8.68;42.03;99385.81;5006207;28;20221;-64
2022/03/26 00:07:41;;;;;;;16.67;10.20;;;;;;;8.40;43.20;99353.31;4996849;28;20051;-65
2022/03/26 00:10:07;;;;;;;15.52;9.55;;;;;;;8.65;42.87;99391.22;5005806;28;20108;-64
2022/03/26 00:12:33;;;;;;;14.35;9.65;;;;;;;8.65;42.58;99386.03;5006547;28;20040;-63
2022/03/26 00:14:58;;;;;;;16.25;9.90;;;;;;;8.64;42.88;99386.97;5005853;28;20509;-64
2022/03/26 00:17:25;;;;;;;15.73;10.18;;;;;;;8.63;44.12;99385.31;4991022;28;20686;-63
2022/03/26 00:19:51;;;;;;;18.58;9.85;;;;;;;8.65;44.61;99389.47;5002187;28;20033;-62
2022/03/26 00:22:16;;;;;;;17.17;10.18;;;;;;;8.62;44.19;99394.06;5047223;28;20218;-63
2022/03/26 00:24:41;;;;;;;14.50;9.15;;;;;;;8.63;44.91;99395.69;5019789;28;20457;-63
2022/03/26 00:27:07;;;;;;;13.55;9.18;;;;;;;8.71;44.42;99395.97;5009910;28;20128;-62
2022/03/26 00:29:32;;;;;;;15.18;9.45;;;;;;;8.69;45.14;99397.00;5001867;28;20495;-61
2022/03/26 00:31:58;;;;;;;14.90;9.48;;;;;;;8.68;44.52;99398.78;5010307;28;20496;-62
2022/03/26 00:34:23;;;;;;;14.65;9.43;;;;;;;8.33;44.71;99347.72;5010917;28;20037;-61
2022/03/26 00:36:48;;;;;;;14.93;9.50;;;;;;;8.23;45.29;99339.81;5005053;28;20156;-64
2022/03/26 00:39:14;;;;;;;15.68;9.35;;;;;;;8.54;44.05;99405.00;5023187;28;20055;-60
2022/03/26 00:41:39;;;;;;;13.10;8.98;;;;;;;8.41;44.81;99399.00;5022763;28;20116;-60
2022/03/26 00:44:05;;;;;;;12.90;9.02;;;;;;;8.22;46.78;99352.88;5020930;28;20502;-62
2022/03/26 00:46:30;;;;;;;14.10;9.02;;;;;;;8.51;46.87;99410.38;5018724;28;20113;-64
2022/03/26 00:48:56;;;;;;;18.33;10.52;;;;;;;8.45;50.32;99406.47;5013462;28;20032;-60
2022/03/26 00:51:21;;;;;;;13.82;11.00;;;;;;;8.14;51.79;99352.59;5010397;28;20124;-64
2022/03/26 00:53:47;;;;;;;15.65;10.43;;;;;;;8.22;51.33;99358.88;5031070;28;20069;-63
2022/03/26 00:56:12;;;;;;;14.98;10.23;;;;;;;8.50;53.19;99406.13;5041886;28;20106;-61
2022/03/26 00:58:39;;;;;;;14.30;10.02;;;;;;;8.41;53.57;99401.59;5043629;28;20037;-60
2022/03/26 01:01:04;;;;;;;17.63;10.07;;;;;;;8.12;54.78;99370.00;5014901;28;20164;-61
2022/03/26 01:03:30;;;;;;;17.17;9.82;;;;;;;8.40;55.26;99400.78;5022164;28;20116;-65
2022/03/26 01:05:55;;;;;;;14.32;10.00;;;;;;;8.42;57.19;99406.69;5019557;28;20038;-63
2022/03/26 01:08:21;;;;;;;14.18;9.57;;;;;;;8.40;59.91;99400.78;5055234;28;20044;-65
2022/03/26 01:10:46;;;;;;;15.32;10.15;;;;;;;8.38;57.40;99399.25;5021128;28;20086;-63
2022/03/26 01:13:13;;;;;;;15.48;10.20;;;;;;;7.90;58.22;99356.00;5022130;28;20037;-63
2022/03/26 01:15:38;;;;;;;13.32;9.65;;;;;;;8.22;62.04;99409.88;5020480;28;20029;-62
2022/03/26 01:18:04;;;;;;;15.90;9.00;;;;;;;8.09;60.43;99399.56;5002575;28;20044;-63
2022/03/26 01:20:30;;;;;;;16.20;9.25;;;;;;;8.07;59.16;99401.44;5013489;28;20090;-65
2022/03/26 01:22:56;;;;;;;14.10;9.13;;;;;;;7.92;60.71;99403.31;5014338;28;20040;-62
2022/03/26 01:25:21;;;;;;;12.60;8.77;;;;;;;7.73;59.61;99352.03;5015613;28;20080;-65
2022/03/26 01:27:47;;;;;;;10.27;7.03;;;;;;;8.21;57.11;99403.03;5017806;28;20036;-64
2022/03/26 01:30:13;;;;;;;14.30;7.85;;;;;;;8.15;55.80;99391.34;5019015;28;20029;-63
2022/03/26 01:32:38;;;;;;;12.00;7.32;;;;;;;7.88;56.26;99347.53;5016637;28;20033;-62
2022/03/26 01:35:05;;;;;;;11.55;8.02;;;;;;;8.23;56.00;99381.28;5021843;28;20032;-63
2022/03/26 01:37:30;;;;;;;32.95;17.33;;;;;;;8.25;57.80;99389.75;5020306;28;20045;-62
2022/03/26 01:39:56;;;;;;;16.88;11.20;;;;;;;8.24;57.68;99385.50;5008053;28;20085;-61
2022/03/26 01:42:21;;;;;;;13.20;8.82;;;;;;;7.92;57.70;99343.78;5014385;28;20029;-62
2022/03/26 01:44:47;;;;;;;10.77;7.40;;;;;;;8.24;56.17;99387.28;5017259;28;20061;-64
2022/03/26 01:47:12;;;;;;;12.60;8.23;;;;;;;8.19;56.48;99379.81;5003347;28;20033;-61
2022/03/26 01:49:38;;;;;;;14.63;8.38;;;;;;;8.18;56.02;99373.00;5019569;28;20021;-61
2022/03/26 01:52:07;;;;;;;11.13;7.70;;;;;;;8.15;56.25;99380.97;5004327;28;20451;-63
2022/03/26 01:54:32;;;;;;;11.65;7.90;;;;;;;7.91;55.36;99333.56;5014483;28;20045;-63
2022/03/26 01:56:58;;;;;;;11.43;7.57;;;;;;;8.24;56.33;99374.31;5025630;28;20155;-62
2022/03/26 01:59:24;;;;;;;11.75;7.60;;;;;;;8.12;54.54;99355.28;5022568;28;20055;-64
2022/03/26 02:01:49;;;;;;;11.73;7.68;;;;;;;8.24;55.49;99371.72;5023520;28;20477;-63
2022/03/26 02:04:15;;;;;;;13.75;8.10;;;;;;;8.30;54.85;99378.22;5026727;28;20400;-63
2022/03/26 02:06:41;;;;;;;11.65;8.05;;;;;;;8.23;54.25;99372.66;5007281;28;20084;-61
2022/03/26 02:09:12;;;;;;;13.82;8.30;;;;;;;7.91;54.91;99333.56;5001207;28;20034;-62
2022/03/26 02:11:40;;;;;;;13.30;8.18;;;;;;;8.22;53.42;99382.19;5022589;28;20032;-64
2022/03/26 02:14:08;;;;;;;13.52;8.15;;;;;;;8.19;52.20;99381.59;5024728;28;20412;-63
2022/03/26 02:16:34;;;;;;;13.65;8.80;;;;;;;7.86;50.75;99357.97;5017440;28;20833;-63
2022/03/26 02:19:00;;;;;;;13.15;9.27;;;;;;;8.07;51.63;99378.94;5021086;28;20018;-66
2022/03/26 02:21:25;;;;;;;16.38;9.32;;;;;;;8.04;51.47;99371.38;5019850;28;20441;-63
2022/03/26 02:23:52;;;;;;;14.20;8.90;;;;;;;8.12;51.83;99365.66;5019010;28;20034;-62
2022/03/26 02:26:25;;;;;;;12.90;8.73;;;;;;;8.23;53.12;99375.25;5004849;28;20038;-60
2022/03/26 02:28:52;;;;;;;12.90;8.82;;;;;;;8.21;52.35;99377.97;5020535;28;20313;-63
2022/03/26 02:31:17;;;;;;;13.48;9.07;;;;;;;8.17;51.92;99366.16;5016896;28;20520;-62
2022/03/26 02:33:43;;;;;;;14.85;9.25;;;;;;;8.05;50.77;99375.66;5024395;28;20117;-63
2022/03/26 02:36:09;;;;;;;13.45;8.70;;;;;;;8.06;49.87;99374.69;5024217;28;20033;-60
2022/03/26 02:38:36;;;;;;;11.98;9.02;;;;;;;8.18;49.41;99383.34;5016889;28;20033;-62
2022/03/26 02:41:02;;;;;;;14.05;8.90;;;;;;;8.05;49.43;99335.97;5026990;28;20033;-65
2022/03/26 02:43:28;;;;;;;13.80;9.13;;;;;;;8.39;49.07;99387.91;5003955;28;20388;-64
2022/03/26 02:45:53;;;;;;;11.25;8.02;;;;;;;8.38;47.05;99384.50;5040591;28;20037;-63
2022/03/26 02:48:19;;;;;;;11.98;8.05;;;;;;;8.49;45.45;99383.75;5017387;28;20028;-64
2022/03/26 02:50:45;;;;;;;16.40;8.55;;;;;;;8.44;46.32;99370.31;5023169;28;20026;-62
2022/03/26 02:53:10;;;;;;;14.65;8.60;;;;;;;8.46;47.29;99376.19;5019149;28;20056;-64
2022/03/26 02:55:36;;;;;;;13.23;8.65;;;;;;;8.46;49.10;99389.16;5018749;28;20041;-62
2022/03/26 02:58:02;;;;;;;13.13;7.90;;;;;;;8.47;48.60;99385.63;5003185;28;20061;-66
2022/03/26 03:00:28;;;;;;;12.75;8.30;;;;;;;8.24;49.95;99377.72;5020587;28;20051;-64
2022/03/26 03:02:54;;;;;;;13.60;8.57;;;;;;;8.12;51.59;99346.69;5005149;28;20026;-64
2022/03/26 03:05:19;;;;;;;12.55;8.43;;;;;;;8.41;50.46;99386.84;5023010;28;20041;-61
2022/03/26 03:07:45;;;;;;;13.57;8.60;;;;;;;8.24;50.40;99395.88;5021377;28;20029;-63
2022/03/26 03:10:15;;;;;;;15.77;8.85;;;;;;;8.26;48.79;99396.56;5019555;28;20021;-62
2022/03/26 03:12:44;;;;;;;12.25;8.10;;;;;;;8.23;50.71;99394.22;5021385;28;20048;-60
2022/03/26 03:15:10;;;;;;;11.95;8.27;;;;;;;8.06;50.94;99389.41;5025976;28;20087;-60
2022/03/26 03:17:40;;;;;;;13.85;8.27;;;;;;;8.16;49.87;99389.56;5024349;28;20473;-63
2022/03/26 03:20:07;;;;;;;14.18;8.20;;;;;;;7.99;50.84;99349.34;5006556;28;20029;-60
2022/03/26 03:22:33;;;;;;;12.70;8.32;;;;;;;8.24;48.31;99406.22;5016589;28;20538;-63
2022/03/26 03:24:59;;;;;;;14.48;8.43;;;;;;;8.28;49.13;99405.06;5017732;28;20026;-63
2022/03/26 03:27:24;;;;;;;12.77;8.13;;;;;;;8.41;48.27;99405.00;5017238;28;20452;-60
2022/03/26 03:29:49;;;;;;;15.25;9.02;;;;;;;8.37;48.30;99403.56;5018670;28;20197;-60
2022/03/26 03:32:15;;;;;;;12.80;8.82;;;;;;;8.38;49.68;99401.84;5020359;28;20760;-64
2022/03/26 03:34:41;;;;;;;12.98;8.65;;;;;;;8.28;50.30;99402.47;4997698;28;20042;-63
2022/03/26 03:37:06;;;;;;;12.70;8.77;;;;;;;8.22;50.55;99412.47;5012087;28;20735;-62
2022/03/26 03:39:32;;;;;;;14.95;8.32;;;;;;;7.96;51.03;99362.50;5021941;28;20124;-62
2022/03/26 03:41:57;;;;;;;15.57;8.77;;;;;;;8.12;50.89;99407.09;5019542;28;20108;-62
2022/03/26 03:44:23;;;;;;;14.38;9.00;;;;;;;8.16;51.36;99395.59;5015996;28;20482;-61
2022/03/26 03:46:48;;;;;;;13.98;8.32;;;;;;;8.09;51.79;99376.25;5020408;28;20038;-62
2022/03/26 03:49:14;;;;;;;13.48;8.10;;;;;;;7.99;49.37;99363.13;5024619;28;20033;-64
2022/03/26 03:51:39;;;;;;;13.63;8.88;;;;;;;8.11;49.44;99402.06;5005899;28;20536;-62
2022/03/26 03:54:05;;;;;;;13.30;8.40;;;;;;;8.16;48.56;99405.13;5021297;28;20040;-63
2022/03/26 03:56:31;;;;;;;12.18;8.57;;;;;;;8.19;48.98;99404.91;5017939;28;20033;-62
2022/03/26 03:58:56;;;;;;;14.27;8.50;;;;;;;8.08;49.46;99414.25;5026474;28;20037;-62
2022/03/26 04:01:22;;;;;;;12.57;7.93;;;;;;;8.21;50.08;99414.25;5022675;28;20559;-63
2022/03/26 04:03:47;;;;;;;13.45;8.98;;;;;;;7.88;55.04;99382.03;5024026;28;20469;-63
2022/03/26 04:06:13;;;;;;;14.02;8.23;;;;;;;7.95;55.32;99404.88;5022391;28;20037;-64
2022/03/26 04:08:38;;;;;;;15.45;8.98;;;;;;;7.91;55.59;99417.22;5016995;28;20033;-63
2022/03/26 04:11:04;;;;;;;12.52;8.10;;;;;;;7.53;55.23;99373.31;5023012;28;20115;-64
2022/03/26 04:13:29;;;;;;;12.55;8.57;;;;;;;7.85;54.36;99430.63;5022376;28;20036;-62
2022/03/26 04:15:55;;;;;;;11.82;8.57;;;;;;;7.43;52.06;99367.94;5020081;28;20025;-63
2022/03/26 04:18:20;;;;;;;11.15;7.57;;;;;;;7.73;52.28;99414.16;5020953;28;20040;-62
2022/03/26 04:20:46;;;;;;;12.23;7.82;;;;;;;7.66;52.50;99379.28;5014518;28;20036;-62
2022/03/26 04:23:12;;;;;;;13.40;7.97;;;;;;;8.00;51.78;99418.34;5021086;28;20130;-64
2022/03/26 04:25:38;;;;;;;13.55;8.05;;;;;;;8.01;52.14;99412.22;5015062;28;20037;-64
2022/03/26 04:28:04;;;;;;;14.68;7.82;;;;;;;7.99;49.75;99427.03;5022875;28;20029;-64
2022/03/26 04:30:29;;;;;;;10.63;7.50;;;;;;;8.00;51.93;99423.53;5015533;28;20030;-63
2022/03/26 04:32:55;;;;;;;15.10;8.75;;;;;;;8.03;52.63;99423.28;5001438;28;20037;-63
2022/03/26 04:35:21;;;;;;;15.52;7.97;;;;;;;7.96;53.05;99414.28;4995864;28;20057;-62
2022/03/26 04:37:46;;;;;;;13.13;8.10;;;;;;;8.10;53.22;99424.50;4984765;28;20037;-63
2022/03/26 04:40:13;;;;;;;11.73;7.93;;;;;;;8.07;52.34;99427.34;4982810;28;20060;-65
2022/03/26 04:42:40;;;;;;;11.57;7.50;;;;;;;7.76;52.74;99372.53;4966492;28;20113;-63
2022/03/26 04:45:07;;;;;;;12.55;8.07;;;;;;;8.12;49.24;99433.00;4990458;28;20493;-60
2022/03/26 04:47:33;;;;;;;13.05;8.48;;;;;;;7.56;49.68;99358.41;4976538;28;20034;-62
2022/03/26 04:49:59;;;;;;;12.73;7.88;;;;;;;7.87;49.24;99424.38;4981453;28;20530;-64
2022/03/26 04:52:24;;;;;;;11.57;7.63;;;;;;;8.06;44.52;99430.84;4980221;28;20118;-64
2022/03/26 04:54:50;;;;;;;12.27;7.72;;;;;;;8.13;45.83;99434.66;4975701;28;20031;-62
2022/03/26 04:57:17;;;;;;;11.40;7.38;;;;;;;8.18;47.27;99442.13;4984154;28;20113;-63
2022/03/26 04:59:44;;;;;;;13.75;7.78;;;;;;;8.19;46.09;99454.94;4982342;28;20105;-62
2022/03/26 05:02:09;;;;;;;12.27;7.40;;;;;;;8.19;44.93;99442.00;4982870;28;20026;-63
2022/03/26 05:04:35;;;;;;;15.18;8.07;;;;;;;8.01;48.31;99435.53;4981489;28;20406;-63
2022/03/26 05:07:00;;;;;;;13.32;8.25;;;;;;;8.01;47.83;99436.38;4963875;28;20046;-63
2022/03/26 05:09:26;;;;;;;12.63;7.78;;;;;;;8.01;47.56;99446.72;4981443;28;20030;-64
2022/03/26 05:11:51;;;;;;;12.23;7.38;;;;;;;8.17;46.24;99449.06;4964384;28;20736;-63
2022/03/26 05:14:17;;;;;;;11.65;7.53;;;;;;;8.17;45.65;99443.88;4983283;28;20062;-65
2022/03/26 05:16:43;;;;;;;13.13;7.85;;;;;;;8.20;45.15;99438.47;4981453;28;20125;-65
2022/03/26 05:19:09;;;;;;;13.00;8.13;;;;;;;8.26;45.15;99443.22;5012077;28;20034;-63
2022/03/26 05:21:34;;;;;;;11.10;7.75;;;;;;;8.24;44.10;99450.28;4991428;28;20262;-64
2022/03/26 05:24:00;;;;;;;11.27;7.35;;;;;;;8.45;43.95;99460.06;4984303;28;20074;-62
2022/03/26 05:26:25;;;;;;;13.55;7.40;;;;;;;8.34;44.39;99455.66;4981788;28;20408;-63
2022/03/26 05:28:51;;;;;;;12.60;7.82;;;;;;;8.28;45.06;99467.25;4976118;28;20042;-62
2022/03/26 05:31:17;;;;;;;13.73;8.18;;;;;;;8.42;43.04;99465.50;4982726;28;20041;-63
2022/03/26 05:33:42;;;;;;;12.82;8.07;;;;;;;8.44;42.51;99463.59;4974322;28;20041;-66
2022/03/26 05:36:08;;;;;;;13.35;7.50;;;;;;;8.01;46.21;99426.03;4981582;28;20034;-65
2022/03/26 05:38:33;;;;;;;11.82;8.05;;;;;;;8.21;46.24;99468.66;4981900;28;20038;-62
2022/03/26 05:40:59;;;;;;;13.00;8.13;;;;;;;8.07;47.55;99472.19;4982774;28;20045;-68
2022/03/26 05:43:24;;;;;;;13.27;8.20;;;;;;;8.09;50.28;99483.28;4983797;28;20030;-62
2022/03/26 05:45:51;;;;;;;15.98;8.32;;;;;;;7.97;50.75;99494.47;4980474;28;20445;-65
2022/03/26 05:48:17;;;;;;;13.65;8.23;;;;;;;7.55;51.68;99441.31;4983655;28;20026;-65
2022/03/26 05:50:44;;;;;;;12.35;8.15;;;;;;;7.82;51.33;99492.97;4996232;28;20069;-63
2022/03/26 05:53:10;;;;;;;13.75;8.05;;;;;;;7.96;46.95;99498.03;4977045;28;20030;-64
2022/03/26 05:55:35;;;;;;;12.88;8.07;;;;;;;8.09;45.17;99498.81;4980637;28;20041;-63
2022/03/26 05:58:02;;;;;;;14.85;8.25;;;;;;;8.33;44.29;99508.41;4996162;28;20096;-65
2022/03/26 06:00:27;;;;;;;11.80;8.23;;;;;;;7.80;50.22;99459.41;4980083;28;20026;-62
2022/03/26 06:02:53;;;;;;;13.88;8.18;;;;;;;7.97;51.19;99516.97;4978639;28;20037;-62
2022/03/26 06:05:18;;;;;;;18.40;8.45;;;;;;;7.54;51.59;99457.75;4992732;28;20027;-63
2022/03/26 06:07:44;;;;;;;14.05;7.90;;;;;;;7.59;51.03;99469.47;4980873;28;20038;-65
2022/03/26 06:10:09;;;;;;;15.18;8.82;;;;;;;7.95;51.92;99527.44;4975445;28;20026;-63
2022/03/26 06:12:35;;;;;;;14.48;7.90;;;;;;;7.78;49.83;99482.00;4982075;28;20093;-63
2022/03/26 06:15:03;;;;;;;11.85;7.60;;;;;;;7.77;49.93;99482.09;4981725;28;20091;-62
2022/03/26 06:17:28;;;;;;;13.15;8.70;;;;;;;8.02;49.25;99517.47;4982134;28;20033;-62
2022/03/26 06:19:53;;;;;;;13.60;8.27;;;;;;;8.08;49.07;99527.41;4979662;28;20445;-64
2022/03/26 06:22:19;;;;;;;14.57;8.40;;;;;;;7.96;49.74;99531.69;4983410;28;20045;-64
2022/03/26 06:24:44;;;;;;;13.10;8.25;;;;;;;8.10;49.62;99530.72;4981369;28;20049;-64
2022/03/26 06:27:09;;;;;;;13.50;8.70;;;;;;;8.00;48.12;99514.19;4964622;28;20058;-65
2022/03/26 06:29:36;;;;;;;12.85;8.27;;;;;;;7.80;49.16;99477.53;4965470;28;20031;-64
2022/03/26 06:32:03;;;;;;;13.23;8.13;;;;;;;8.14;49.85;99529.59;4979949;28;20027;-63
2022/03/26 06:34:28;;;;;;;12.73;8.30;;;;;;;8.13;49.21;99533.09;4981104;28;20331;-64
2022/03/26 06:36:54;;;;;;;13.82;8.45;;;;;;;8.24;50.22;99533.19;4980198;28;20062;-64
2022/03/26 06:39:19;;;;;;;13.13;8.07;;;;;;;8.17;50.73;99542.31;4985305;28;21647;-62
2022/03/26 06:41:45;;;;;;;13.82;8.65;;;;;;;8.08;51.35;99541.19;4984484;28;20426;-63
2022/03/26 06:44:12;;;;;;;14.48;7.88;;;;;;;8.01;49.96;99546.91;4985325;28;20049;-63
2022/03/26 06:46:38;;;;;;;13.52;8.07;;;;;;;7.98;53.92;99539.34;4966139;28;20096;-63
2022/03/26 06:49:04;;;;;;;13.70;8.40;;;;;;;7.85;53.76;99547.97;4982000;28;20062;-66
2022/03/26 06:51:31;;;;;;;14.80;7.75;;;;;;;7.91;51.76;99549.31;4983125;28;20595;-64
2022/03/26 06:53:58;;;;;;;13.27;8.55;;;;;;;7.91;52.34;99543.31;4985145;28;20038;-65
2022/03/26 06:56:24;;;;;;;12.18;8.13;;;;;;;7.80;52.04;99526.72;4984005;28;20075;-63
2022/03/26 06:58:49;;;;;;;11.75;7.85;;;;;;;7.87;50.84;99543.50;4977302;28;20108;-64
2022/03/26 07:01:14;;;;;;;12.38;8.70;;;;;;;8.00;50.60;99542.66;4982880;28;20034;-62
2022/03/26 07:03:40;;;;;;;13.85;8.13;;;;;;;7.83;51.08;99490.28;4974251;28;20056;-63
2022/03/26 07:06:05;;;;;;;15.43;8.32;;;;;;;8.18;49.52;99545.75;4985105;28;20030;-65
2022/03/26 07:08:31;;;;;;;13.77;8.40;;;;;;;8.17;51.41;99550.09;4983052;28;20034;-62
2022/03/26 07:10:56;;;;;;;16.65;8.50;;;;;;;8.18;50.22;99546.56;4965414;28;20043;-62
2022/03/26 07:13:22;;;;;;;16.85;8.77;;;;;;;8.08;49.49;99538.59;4978850;28;20049;-63
2022/03/26 07:15:48;;;;;;;14.35;8.02;;;;;;;7.92;48.28;99499.16;4978807;28;20045;-66
2022/03/26 07:18:13;;;;;;;13.65;7.95;;;;;;;8.14;46.93;99547.72;4980599;28;20703;-63
2022/03/26 07:20:39;;;;;;;12.93;7.72;;;;;;;8.13;48.84;99527.09;4977775;28;20044;-62
2022/03/26 07:23:04;;;;;;;14.00;8.27;;;;;;;8.22;47.72;99539.41;4985830;28;20397;-63
2022/03/26 07:25:30;;;;;;;13.90;8.60;;;;;;;8.60;40.40;99541.94;4980897;28;20030;-64
2022/03/26 07:27:56;;;;;;;15.93;9.85;;;;;;;9.01;39.55;99542.47;4979688;28;20022;-63
2022/03/26 07:30:23;;;;;;;14.13;8.98;;;;;;;8.78;41.13;99511.25;4972165;28;20038;-64
2022/03/26 07:32:48;;;;;;;14.88;9.52;;;;;;;8.92;42.54;99550.91;4978380;28;20034;-64
2022/03/26 07:35:14;;;;;;;14.32;9.32;;;;;;;8.68;42.37;99538.78;4976278;28;20046;-62
2022/03/26 07:37:40;;;;;;;15.25;8.65;;;;;;;8.68;42.36;99548.34;4980303;28;20108;-61
2022/03/26 07:40:05;;;;;;;13.20;8.10;;;;;;;8.74;43.13;99550.47;4967332;28;20034;-63
2022/03/26 07:42:31;;;;;;;14.25;8.55;;;;;;;8.63;43.60;99544.31;4984151;28;20079;-61
2022/03/26 07:44:56;;;;;;;14.00;8.80;;;;;;;8.76;43.00;99564.16;4977228;28;20120;-63
2022/03/26 07:47:22;;;;;;;15.88;8.82;;;;;;;8.53;44.03;99517.38;4980377;28;20109;-61
2022/03/26 07:49:47;;;;;;;15.75;9.48;;;;;;;8.63;45.21;99531.34;4965677;28;20038;-65
2022/03/26 07:52:13;;;;;;;16.58;9.35;;;;;;;8.53;46.83;99514.78;4981866;28;20740;-63
2022/03/26 07:54:39;;;;;;;13.05;9.13;;;;;;;8.91;46.93;99563.06;4982542;28;20085;-62
2022/03/26 07:57:05;;;;;;;13.80;9.30;;;;;;;8.99;47.81;99567.69;4975368;28;20349;-64
2022/03/26 07:59:30;;;;;;;16.08;9.93;;;;;;;8.85;47.63;99529.78;4988742;28;20154;-65
2022/03/26 08:01:56;;;;;;;16.48;9.75;;;;;;;8.95;48.24;99559.31;4967869;28;20026;-63
2022/03/26 08:04:21;;;;;;;14.80;9.55;;;;;;;9.01;47.62;99564.03;4982561;28;20035;-65
2022/03/26 08:06:47;;;;;;;15.55;9.77;;;;;;;8.95;48.32;99556.72;4977726;28;20416;-61
2022/03/26 08:09:12;;;;;;;16.60;10.00;;;;;;;8.91;49.05;99555.28;4975932;28;20084;-63
2022/03/26 08:11:38;;;;;;;16.48;9.93;;;;;;;9.00;48.86;99566.78;4978627;28;20041;-63
2022/03/26 08:14:04;;;;;;;14.73;9.35;;;;;;;8.91;48.10;99542.31;4973492;28;20062;-62
2022/03/26 08:16:29;;;;;;;17.85;10.40;;;;;;;9.01;49.17;99558.03;4979515;28;21048;-64
2022/03/26 08:18:55;;;;;;;18.83;9.95;;;;;;;9.01;47.28;99566.63;4982279;28;20145;-61
2022/03/26 08:21:20;;;;;;;17.30;10.70;;;;;;;8.98;49.26;99553.06;4968542;28;20084;-65
2022/03/26 08:23:46;;;;;;;15.80;10.50;;;;;;;8.96;47.62;99565.31;4979783;28;20085;-63
2022/03/26 08:26:26;;;;;;;17.67;10.40;;;;;;;9.07;47.61;99561.94;4976657;28;20118;-64
2022/03/26 08:28:53;;;;;;;16.38;10.32;;;;;;;9.09;48.61;99557.47;4961649;28;20585;-62
2022/03/26 08:31:20;;;;;;;16.23;10.45;;;;;;;9.16;45.74;99556.09;4968739;28;20057;-64
2022/03/26 08:59:01;;;;;;;16.27;9.88;;;;;;;8.60;50.06;99510.00;5053802;28;20394;-65
2022/03/26 09:01:27;;;;;;;18.33;10.45;;;;;;;8.90;49.92;99556.22;5053166;28;20040;-65
2022/03/26 09:03:52;;;;;;;19.63;11.00;;;;;;;9.03;47.31;99557.00;5052956;28;20491;-64
2022/03/26 09:06:18;;;;;;;20.10;10.43;;;;;;;8.87;47.18;99514.97;5038051;28;20827;-62
2022/03/26 09:08:43;;;;;;;18.65;10.50;;;;;;;9.23;45.80;99552.91;5052472;28;20044;-63
2022/03/26 09:11:09;;;;;;;17.73;10.55;;;;;;;9.30;46.26;99547.28;5059149;28;20082;-63
2022/03/26 09:13:34;;;;;;;15.57;10.13;;;;;;;9.45;44.72;99553.09;5042015;28;20082;-62
2022/03/26 09:16:00;;;;;;;20.45;10.10;;;;;;;9.63;44.88;99552.53;5030188;28;20483;-62
2022/03/26 09:18:26;;;;;;;17.75;10.45;;;;;;;9.99;41.16;99550.69;5050683;28;20120;-61
2022/03/26 09:20:53;;;;;;;16.95;10.45;;;;;;;10.04;39.65;99506.19;5050020;28;20036;-65
2022/03/26 09:23:18;;;;;;;17.92;10.60;;;;;;;10.38;39.16;99511.34;4983293;28;20319;-68
2022/03/26 09:25:44;;;;;;;19.52;10.57;;;;;;;10.49;37.44;99508.72;5044684;28;20119;-62
2022/03/26 09:30:43;;;;;;;16.27;9.85;;;;;;;10.72;35.05;99488.69;5001722;28;19933;-66
2022/03/26 09:33:08;;;;;;;14.85;10.15;;;;;;;11.20;35.73;99549.84;5000234;28;20034;-63
2022/03/26 09:35:34;;;;;;;17.08;9.85;;;;;;;11.38;35.15;99550.13;4992685;28;20034;-61
2022/03/26 09:38:00;;;;;;;18.65;9.82;;;;;;;11.27;34.81;99509.34;5010819;28;20034;-65
2022/03/26 09:40:25;;;;;;;14.75;10.35;;;;;;;11.29;35.11;99504.84;4992648;28;20088;-65
2022/03/26 09:42:51;;;;;;;16.45;10.90;;;;;;;11.49;35.39;99539.66;5005778;28;20034;-61
2022/03/26 09:45:18;;;;;;;15.05;10.93;;;;;;;11.65;33.04;99535.78;5003982;28;20030;-65
2022/03/26 09:47:43;;;;;;;16.50;11.30;;;;;;;12.03;34.20;99550.78;4994786;28;20022;-62
2022/03/26 09:50:10;;;;;;;16.52;10.85;;;;;;;12.52;31.99;99530.06;5007105;28;20095;-64
2022/03/26 09:52:36;;;;;;;15.85;10.52;;;;;;;12.39;31.50;99479.94;5011616;28;20037;-62
2022/03/26 09:55:03;;;;;;;17.83;10.45;;;;;;;12.73;31.35;99529.97;5005536;28;20111;-64
2022/03/26 09:57:29;;;;;;;16.33;10.40;;;;;;;12.65;30.10;99522.00;5025553;28;20124;-61
2022/03/26 09:59:54;;;;;;;16.00;10.45;;;;;;;12.69;29.68;99524.19;5025768;28;20106;-63
2022/03/26 10:02:20;;;;;;;16.15;11.07;;;;;;;12.40;30.59;99477.19;5016733;28;20029;-63
2022/03/26 10:04:45;;;;;;;14.55;10.40;;;;;;;12.64;30.27;99487.25;5011964;28;20380;-61
2022/03/26 10:07:12;;;;;;;15.63;10.75;;;;;;;13.10;29.90;99524.06;5024000;28;20029;-60
2022/03/26 10:09:41;;;;;;;18.90;10.40;;;;;;;13.01;29.71;99491.75;5013437;28;20042;-63
2022/03/26 10:12:17;;;;;;;14.40;10.23;;;;;;;13.21;29.15;99523.91;4999567;28;20061;-60
2022/03/26 10:14:59;;;;;;;14.18;9.98;;;;;;;13.39;29.93;99516.22;5015535;28;20029;-62
2022/03/26 10:17:32;;;;;;;15.60;10.32;;;;;;;13.46;30.26;99477.28;5019266;28;20033;-62
2022/03/26 10:20:10;;;;;;;17.70;10.65;;;;;;;13.86;28.78;99504.94;4994459;28;20078;-60
2022/03/26 10:22:43;;;;;;;18.48;11.27;;;;;;;14.01;28.17;99500.88;5000534;28;20665;-62
2022/03/26 10:25:10;;;;;;;14.18;10.07;;;;;;;14.27;27.11;99497.56;4990311;28;20526;-62
2022/03/26 10:27:42;;;;;;;15.60;10.43;;;;;;;14.45;27.48;99500.22;5005411;28;20061;-62
2022/03/26 10:30:09;;;;;;;17.58;10.70;;;;;;;14.66;26.48;99499.13;4981866;28;20053;-65
2022/03/26 10:32:39;;;;;;;18.17;10.82;;;;;;;14.60;27.01;99469.16;4996266;28;20030;-63
2022/03/26 10:35:09;;;;;;;14.13;11.25;;;;;;;14.70;28.92;99501.31;5013991;28;20025;-63
2022/03/26 10:37:46;;;;;;;15.82;11.02;;;;;;;14.52;28.22;99497.84;4983531;28;20507;-60
2022/03/26 10:40:20;;;;;;;16.45;10.70;;;;;;;14.56;27.83;99476.44;4998171;28;20121;-64
2022/03/26 10:42:55;;;;;;;16.85;10.77;;;;;;;14.59;28.54;99483.22;5012628;28;20529;-62
2022/03/26 10:45:21;;;;;;;15.63;10.93;;;;;;;14.77;27.88;99477.97;5007975;28;20532;-66
2022/03/26 10:47:48;;;;;;;17.52;11.05;;;;;;;14.78;28.85;99477.84;5007185;28;20036;-59
2022/03/26 10:50:14;;;;;;;15.95;10.85;;;;;;;14.46;30.22;99467.84;4953634;28;20106;-64
2022/03/26 10:52:41;;;;;;;16.75;10.18;;;;;;;14.51;29.94;99468.25;4968786;28;20030;-65
2022/03/26 10:55:17;;;;;;;15.65;11.43;;;;;;;14.89;27.36;99474.13;4975279;28;20475;-62
2022/03/26 10:57:47;;;;;;;19.48;13.05;;;;;;;15.28;25.53;99463.31;4987572;28;20091;-64
2022/03/26 11:00:13;;;;;;;19.52;13.30;;;;;;;15.52;25.18;99454.75;4998438;28;20040;-60
2022/03/26 11:02:39;;;;;;;20.52;13.52;;;;;;;15.69;24.50;99450.41;4980839;28;20525;-62
2022/03/26 11:05:05;;;;;;;21.20;14.13;;;;;;;15.83;25.29;99453.47;5012443;28;20025;-65
2022/03/26 11:07:32;;;;;;;22.83;14.50;;;;;;;15.84;24.31;99431.50;5008864;28;20050;-67
2022/03/26 11:09:58;;;;;;;22.45;14.57;;;;;;;16.03;24.40;99454.84;4958210;28;20045;-61
2022/03/26 11:12:25;;;;;;;23.42;16.00;;;;;;;16.14;24.12;99443.22;5015018;28;20126;-62
2022/03/26 11:14:52;;;;;;;24.52;16.23;;;;;;;16.18;23.79;99428.00;5001939;28;20034;-62
2022/03/26 11:17:35;;;;;;;21.38;14.82;;;;;;;16.50;23.48;99437.69;4976774;28;20065;-61
2022/03/26 11:20:09;;;;;;;26.58;16.63;;;;;;;16.26;23.32;99405.22;4983497;28;20034;-63
2022/03/26 11:22:56;;;;;;;22.92;16.02;;;;;;;16.61;22.81;99447.91;4979883;28;20045;-63
2022/03/26 11:25:43;;;;;;;22.58;15.68;;;;;;;16.60;22.82;99448.06;4970686;28;20030;-64
2022/03/26 11:28:42;;;;;;;21.83;15.65;;;;;;;16.52;22.48;99449.69;4982554;28;20148;-63
2022/03/26 11:31:16;;;;;;;23.27;16.23;;;;;;;16.12;22.79;99366.50;4980500;28;20037;-63
2022/03/26 11:33:42;;;;;;;21.77;15.77;;;;;;;16.32;22.67;99383.56;4994636;28;20280;-65
2022/03/26 11:36:11;;;;;;;29.40;17.75;;;;;;;16.60;23.32;99434.94;4977244;28;20054;-62
2022/03/26 11:38:37;;;;;;;21.43;15.37;;;;;;;16.74;23.37;99434.28;4950740;28;20050;-63
2022/03/26 11:41:07;;;;;;;20.92;15.85;;;;;;;16.78;23.35;99422.47;4992612;28;20059;-65
2022/03/26 11:43:45;;;;;;;20.70;16.02;;;;;;;16.76;22.63;99424.44;4991691;28;20100;-62
2022/03/26 11:51:51;;;;;;;26.83;16.95;;;;;;;16.95;21.72;99427.72;4997322;28;20133;-60
2022/03/26 11:54:18;;;;;;;24.70;16.83;;;;;;;16.96;21.89;99421.47;4994250;28;20040;-62
2022/03/26 11:56:44;;;;;;;24.08;16.85;;;;;;;17.06;21.35;99417.69;4999719;28;20519;-63
2022/03/26 11:59:16;;;;;;;23.52;16.88;;;;;;;17.03;21.52;99414.56;5004209;28;20041;-61